Time;durP1;ratioP1;P1;durP2;ratioP2;P2;SDS_P1;SDS_P2;PMS_P1;PMS_P2;Temp;Humidity;BMP_temperature;BMP_pressure;BME280_temperature;BME280_humidity;BME280_pressure;Samples;Min_cycle;Max_cycle;Signal;HPM_P1;HPM_P2
2022/10/23 00:01:31;;;;;;;27.48;19.25;;;;;;;13.92;100.00;100614.32;1720641;81;25903;-77
2022/10/23 00:04:01;;;;;;;30.63;19.80;;;;;;;13.92;100.00;100618.36;1711104;82;26231;-77
2022/10/23 00:06:28;;;;;;;35.03;19.90;;;;;;;13.94;100.00;100618.17;1701839;81;25829;-78
2022/10/23 00:08:55;;;;;;;29.37;18.65;;;;;;;13.92;100.00;100608.94;1770989;79;26862;-77
2022/10/23 00:11:26;;;;;;;29.72;19.65;;;;;;;13.93;100.00;100618.69;1774847;79;25697;-77
2022/10/23 00:13:55;;;;;;;28.57;19.57;;;;;;;13.92;100.00;100618.91;1774143;79;34925;-78
2022/10/23 00:16:22;;;;;;;36.55;18.90;;;;;;;13.93;100.00;100621.89;1774001;79;25771;-78
2022/10/23 00:18:48;;;;;;;28.80;17.57;;;;;;;13.92;100.00;100619.70;1683975;83;26480;-78
2022/10/23 00:21:16;;;;;;;29.12;19.17;;;;;;;13.93;100.00;100625.42;1720716;81;27446;-77
2022/10/23 00:23:44;;;;;;;31.48;19.02;;;;;;;13.94;100.00;100627.60;1709509;82;26575;-77
2022/10/23 00:26:14;;;;;;;31.87;18.92;;;;;;;13.96;100.00;100632.77;1717529;81;26394;-77
2022/10/23 00:28:39;;;;;;;31.07;19.17;;;;;;;13.96;100.00;100632.26;1719766;82;25841;-79
2022/10/23 00:31:06;;;;;;;34.25;20.08;;;;;;;13.95;100.00;100641.36;1725609;81;26500;-77
2022/10/23 00:33:33;;;;;;;34.08;20.90;;;;;;;13.93;100.00;100638.88;1731644;81;27403;-78
2022/10/23 00:35:59;;;;;;;33.90;21.35;;;;;;;13.94;100.00;100639.17;1724287;81;26514;-78
2022/10/23 00:38:25;;;;;;;33.48;19.77;;;;;;;13.96;100.00;100646.23;1721649;80;25959;-78
2022/10/23 00:40:52;;;;;;;36.00;20.75;;;;;;;13.96;100.00;100648.93;1690183;83;25817;-77
2022/10/23 00:43:23;;;;;;;30.68;19.50;;;;;;;13.92;100.00;100647.18;1693934;82;25968;-77
2022/10/23 00:45:49;;;;;;;31.68;18.98;;;;;;;13.91;100.00;100652.23;1725284;81;27464;-78
2022/10/23 00:48:17;;;;;;;36.13;21.50;;;;;;;13.89;100.00;100652.97;1723478;80;25747;-77
2022/10/23 00:50:44;;;;;;;33.85;19.95;;;;;;;13.88;100.00;100657.52;1725405;81;25763;-77
2022/10/23 00:53:12;;;;;;;35.88;21.40;;;;;;;13.89;100.00;100658.35;1666726;83;25809;-78
2022/10/23 00:55:45;;;;;;;38.28;21.75;;;;;;;13.89;100.00;100657.00;1691718;82;25884;-78
2022/10/23 00:58:10;;;;;;;40.85;22.07;;;;;;;13.89;100.00;100660.53;1733280;81;28237;-77
2022/10/23 01:00:52;;;;;;;35.73;21.02;;;;;;;13.91;100.00;100665.19;1723216;81;25788;-77
2022/10/23 01:03:24;;;;;;;38.28;21.73;;;;;;;13.91;100.00;100662.50;1742164;81;25820;-78
2022/10/23 01:06:10;;;;;;;36.00;22.67;;;;;;;13.91;100.00;100669.23;1732141;81;26386;-77
2022/10/23 01:08:54;;;;;;;45.00;23.65;;;;;;;13.90;100.00;100668.91;1716205;81;25763;-77
2022/10/23 01:11:31;;;;;;;43.38;22.52;;;;;;;13.92;100.00;100672.76;1719262;81;27470;-78
2022/10/23 01:14:33;;;;;;;41.75;23.25;;;;;;;13.93;100.00;100672.55;1688674;81;26049;-77
2022/10/23 01:17:11;;;;;;;44.80;23.35;;;;;;;13.94;100.00;100669.34;1737352;81;25780;-78
2022/10/23 01:19:57;;;;;;;43.92;24.07;;;;;;;13.97;100.00;100676.98;1724959;81;26363;-77
2022/10/23 01:23:03;;;;;;;45.03;24.85;;;;;;;13.96;100.00;100668.61;1718821;80;25781;-77
2022/10/23 01:25:57;;;;;;;46.63;25.12;;;;;;;13.97;100.00;100668.08;1738291;81;28274;-77
2022/10/23 01:28:35;;;;;;;44.03;25.23;;;;;;;13.98;100.00;100669.75;1731565;81;25780;-77
2022/10/23 01:31:07;;;;;;;43.17;23.55;;;;;;;14.00;100.00;100671.71;1735692;81;26040;-78
2022/10/23 01:33:42;;;;;;;47.25;24.40;;;;;;;13.98;100.00;100675.97;1702252;83;25743;-78
2022/10/23 01:36:15;;;;;;;39.23;24.23;;;;;;;14.01;100.00;100676.88;1749707;80;25753;-78
2022/10/23 01:38:52;;;;;;;45.12;25.00;;;;;;;14.02;100.00;100675.86;1796094;78;27271;-77
2022/10/23 01:41:28;;;;;;;44.05;24.07;;;;;;;14.03;100.00;100677.50;1807225;77;26182;-77
2022/10/23 01:44:00;;;;;;;43.28;22.75;;;;;;;14.05;100.00;100681.36;1764961;80;25409;-78
2022/10/23 01:46:30;;;;;;;49.20;25.35;;;;;;;14.03;100.00;100676.16;1812482;78;26002;-77
2022/10/23 01:49:00;;;;;;;46.98;25.23;;;;;;;14.03;100.00;100678.84;1813012;77;25726;-78
2022/10/23 01:51:29;;;;;;;44.75;25.12;;;;;;;14.04;100.00;100681.03;1805829;78;28239;-77
2022/10/23 01:54:00;;;;;;;42.70;25.05;;;;;;;14.04;100.00;100678.34;1789595;77;25797;-77
2022/10/23 01:56:34;;;;;;;46.73;25.68;;;;;;;14.04;100.00;100689.95;1804353;77;25738;-79
2022/10/23 01:59:05;;;;;;;43.20;25.32;;;;;;;14.04;100.00;100683.22;1760648;80;26335;-77
2022/10/23 02:01:35;;;;;;;50.60;25.43;;;;;;;14.06;100.00;100681.66;1731917;81;25749;-79
2022/10/23 02:04:06;;;;;;;46.15;24.43;;;;;;;14.05;100.00;100678.13;1803102;78;26931;-78
2022/10/23 02:06:32;;;;;;;48.08;24.15;;;;;;;14.05;100.00;100680.81;1794764;78;25750;-78
2022/10/23 02:08:59;;;;;;;40.10;23.70;;;;;;;14.05;100.00;100684.05;1770436;80;25773;-78
2022/10/23 02:11:26;;;;;;;45.38;25.23;;;;;;;14.04;100.00;100689.11;1806436;78;25836;-77
2022/10/23 02:14:13;;;;;;;39.00;23.65;;;;;;;14.03;100.00;100690.97;1800929;77;25872;-78
2022/10/23 02:16:53;;;;;;;45.85;25.43;;;;;;;14.05;100.00;100692.94;1802044;77;28693;-78
2022/10/23 02:19:31;;;;;;;46.77;24.92;;;;;;;14.03;100.00;100697.70;1804656;78;25771;-78
2022/10/23 02:22:19;;;;;;;45.70;26.37;;;;;;;14.03;100.00;100691.52;1795443;77;25445;-77
2022/10/23 02:25:06;;;;;;;47.67;25.65;;;;;;;14.03;100.00;100692.86;1755701;80;26118;-78
2022/10/23 02:27:50;;;;;;;46.18;26.20;;;;;;;14.03;100.00;100699.59;1754289;79;25752;-77
2022/10/23 02:30:19;;;;;;;51.58;27.60;;;;;;;14.03;100.00;100695.55;1725126;80;28661;-77
2022/10/23 02:32:51;;;;;;;47.90;26.23;;;;;;;14.02;100.00;100702.80;1740289;81;26407;-78
2022/10/23 02:35:21;;;;;;;42.20;25.32;;;;;;;14.02;100.00;100704.66;1725049;81;25842;-78
2022/10/23 02:37:55;;;;;;;51.37;25.97;;;;;;;14.02;100.00;100702.80;1721557;82;25836;-77
2022/10/23 02:40:29;;;;;;;44.50;24.60;;;;;;;14.02;100.00;100701.45;1741598;80;25729;-78
2022/10/23 02:43:13;;;;;;;43.40;25.82;;;;;;;14.01;100.00;100706.51;1721907;81;27455;-78
2022/10/23 02:45:54;;;;;;;44.60;24.02;;;;;;;14.00;100.00;100703.52;1731294;81;26147;-78
2022/10/23 02:48:26;;;;;;;41.40;24.70;;;;;;;14.00;100.00;100710.25;1720852;81;25799;-77
2022/10/23 02:51:15;;;;;;;40.60;25.52;;;;;;;13.98;100.00;100705.59;1704897;82;26660;-78
2022/10/23 02:54:07;;;;;;;42.93;25.02;;;;;;;13.99;100.00;100703.70;1726286;81;25790;-78
2022/10/23 02:56:44;;;;;;;40.28;23.98;;;;;;;13.96;100.00;100703.62;1724798;81;27453;-78
2022/10/23 02:59:26;;;;;;;42.53;24.65;;;;;;;13.94;100.00;100705.16;1730706;81;26405;-77
2022/10/23 03:01:58;;;;;;;42.48;25.05;;;;;;;13.95;100.00;100701.95;1709729;81;25823;-78
2022/10/23 03:04:27;;;;;;;40.90;23.12;;;;;;;13.98;100.00;100701.55;1722455;80;25473;-79
2022/10/23 03:06:55;;;;;;;47.58;26.62;;;;;;;13.92;100.00;100699.15;1727915;81;25978;-78
2022/10/23 03:09:22;;;;;;;51.18;27.27;;;;;;;13.89;100.00;100704.96;1724574;81;27470;-77
2022/10/23 03:11:49;;;;;;;45.33;26.15;;;;;;;13.87;100.00;100702.16;1687737;83;25886;-77
2022/10/23 03:14:15;;;;;;;44.88;25.10;;;;;;;13.85;100.00;100713.66;1729909;80;26343;-78
2022/10/23 03:16:41;;;;;;;46.70;26.87;;;;;;;13.83;100.00;100712.52;1725166;80;26418;-78
2022/10/23 03:19:10;;;;;;;44.77;26.62;;;;;;;13.84;100.00;100713.33;1716026;80;25803;-79
2022/10/23 03:21:37;;;;;;;45.85;24.00;;;;;;;13.82;100.00;100706.81;1724896;81;27634;-78
2022/10/23 03:24:05;;;;;;;47.15;25.77;;;;;;;13.80;100.00;100706.70;1720266;81;25777;-77
2022/10/23 03:26:33;;;;;;;43.63;26.15;;;;;;;13.80;100.00;100710.73;1723394;80;26566;-78
2022/10/23 03:29:00;;;;;;;47.23;25.82;;;;;;;13.79;100.00;100715.83;1723928;80;25758;-78
2022/10/23 03:31:26;;;;;;;47.45;26.15;;;;;;;13.79;100.00;100720.67;1727359;81;25828;-77
2022/10/23 03:33:54;;;;;;;47.35;24.20;;;;;;;13.78;100.00;100716.33;1743040;80;27479;-79
2022/10/23 03:36:21;;;;;;;43.87;25.97;;;;;;;13.77;100.00;100725.97;1760210;80;25760;-77
2022/10/23 03:38:48;;;;;;;48.17;26.82;;;;;;;13.74;100.00;100720.98;1759622;80;25857;-77
2022/10/23 03:41:14;;;;;;;44.73;26.35;;;;;;;13.73;100.00;100728.22;1756162;80;26894;-78
2022/10/23 03:43:41;;;;;;;47.03;25.65;;;;;;;13.73;100.00;100722.84;1772160;80;25759;-78
2022/10/23 03:46:11;;;;;;;44.23;25.68;;;;;;;13.73;100.00;100736.30;1755530;80;27429;-78
2022/10/23 03:48:37;;;;;;;40.03;24.57;;;;;;;13.71;100.00;100738.36;1761780;80;25974;-78
2022/10/23 03:51:05;;;;;;;43.48;25.23;;;;;;;13.70;100.00;100746.66;1766613;80;25747;-77
2022/10/23 03:53:31;;;;;;;45.33;23.62;;;;;;;13.70;100.00;100756.08;1766430;80;26274;-77
2022/10/23 03:56:00;;;;;;;47.83;25.57;;;;;;;13.68;100.00;100754.11;1761960;80;25787;-78
2022/10/23 03:58:26;;;;;;;51.68;26.87;;;;;;;13.65;100.00;100753.16;1767221;80;27498;-78
2022/10/23 04:00:53;;;;;;;44.88;24.10;;;;;;;13.65;100.00;100754.50;1755692;80;25703;-78
2022/10/23 04:03:19;;;;;;;43.58;25.72;;;;;;;13.65;100.00;100758.03;1756303;80;25737;-77
2022/10/23 04:05:45;;;;;;;43.92;25.60;;;;;;;13.61;100.00;100755.94;1764435;80;26213;-78
2022/10/23 04:08:12;;;;;;;41.75;24.80;;;;;;;13.59;100.00;100758.00;1751492;80;25542;-78
2022/10/23 04:10:38;;;;;;;38.90;24.80;;;;;;;13.56;100.00;100764.62;1768098;80;27438;-78
2022/10/23 04:13:05;;;;;;;42.67;24.30;;;;;;;13.54;100.00;100761.81;1764427;80;26541;-78
2022/10/23 04:15:33;;;;;;;37.23;23.92;;;;;;;13.52;100.00;100763.36;1764141;80;25527;-78
2022/10/23 04:18:01;;;;;;;43.05;24.30;;;;;;;13.51;100.00;100770.30;1759565;80;25818;-77
2022/10/23 04:20:27;;;;;;;41.55;24.72;;;;;;;13.48;100.00;100768.00;1737522;80;25792;-78
2022/10/23 04:22:54;;;;;;;48.90;25.85;;;;;;;13.44;100.00;100772.97;1756516;80;28336;-78
2022/10/23 04:25:20;;;;;;;43.28;26.33;;;;;;;13.44;100.00;100768.09;1755442;80;25775;-78
2022/10/23 04:27:47;;;;;;;42.53;25.12;;;;;;;13.39;100.00;100767.34;1764330;80;25871;-78
2022/10/23 04:30:13;;;;;;;43.45;26.52;;;;;;;13.37;100.00;100773.95;1759860;80;26393;-77
2022/10/23 04:32:40;;;;;;;40.10;24.07;;;;;;;13.30;100.00;100771.77;1758708;80;25811;-77
2022/10/23 04:35:07;;;;;;;43.10;25.27;;;;;;;13.28;100.00;100775.17;1761637;80;27449;-78
2022/10/23 04:37:33;;;;;;;46.48;26.57;;;;;;;13.26;100.00;100769.17;1755595;79;25788;-77
2022/10/23 04:39:59;;;;;;;42.35;25.95;;;;;;;13.27;100.00;100775.69;1760146;80;25801;-78
2022/10/23 04:42:26;;;;;;;47.62;26.35;;;;;;;13.29;100.00;100776.31;1751221;80;25563;-78
2022/10/23 04:44:52;;;;;;;47.30;26.75;;;;;;;13.28;100.00;100781.36;1755226;80;25283;-77
2022/10/23 04:47:18;;;;;;;45.10;26.97;;;;;;;13.27;100.00;100782.41;1758277;80;27484;-76
2022/10/23 04:49:46;;;;;;;46.20;27.50;;;;;;;13.26;100.00;100779.39;1759715;80;25837;-77
2022/10/23 04:52:21;;;;;;;45.30;27.60;;;;;;;13.27;100.00;100781.06;1748684;80;25787;-78
2022/10/23 04:55:01;;;;;;;45.85;26.85;;;;;;;13.26;100.00;100783.42;1753969;80;26350;-78
2022/10/23 04:57:41;;;;;;;42.27;25.80;;;;;;;13.26;100.00;100790.15;1758949;80;25778;-78
2022/10/23 05:00:13;;;;;;;44.27;26.00;;;;;;;13.24;100.00;100799.47;1751970;80;27434;-79
2022/10/23 05:02:41;;;;;;;46.88;25.57;;;;;;;13.23;100.00;100795.11;1764500;80;25739;-79
2022/10/23 05:05:09;;;;;;;41.65;25.23;;;;;;;13.22;100.00;100792.92;1756338;80;25829;-79
2022/10/23 05:07:56;;;;;;;40.58;24.67;;;;;;;13.21;100.00;100800.70;1760246;80;25897;-79
2022/10/23 05:10:24;;;;;;;42.98;24.92;;;;;;;13.19;100.00;100796.03;1763517;80;25803;-78
2022/10/23 05:12:52;;;;;;;41.05;24.70;;;;;;;13.19;100.00;100804.61;1763463;80;27442;-79
2022/10/23 05:15:18;;;;;;;37.03;22.85;;;;;;;13.17;100.00;100798.09;1756949;80;25842;-78
2022/10/23 05:17:49;;;;;;;41.55;24.15;;;;;;;13.19;100.00;100808.64;1757828;80;25533;-78
2022/10/23 05:20:20;;;;;;;42.13;22.65;;;;;;;13.17;100.00;100804.81;1753279;80;25800;-78
2022/10/23 05:22:50;;;;;;;37.40;22.37;;;;;;;13.17;100.00;100803.47;1758412;80;25869;-77
2022/10/23 05:25:18;;;;;;;36.53;22.73;;;;;;;13.17;100.00;100801.29;1765160;80;27892;-78
2022/10/23 05:27:46;;;;;;;41.60;24.37;;;;;;;13.17;100.00;100805.33;1759456;80;25790;-77
2022/10/23 05:30:15;;;;;;;35.73;22.22;;;;;;;13.17;100.00;100801.29;1755766;80;26086;-78
2022/10/23 05:32:42;;;;;;;36.83;22.30;;;;;;;13.19;100.00;100799.23;1761487;80;26404;-78
2022/10/23 05:35:16;;;;;;;38.28;22.45;;;;;;;13.17;100.00;100795.41;1748791;80;26080;-79
2022/10/23 05:37:46;;;;;;;37.42;21.45;;;;;;;13.17;100.00;100795.41;1750557;80;27454;-78
2022/10/23 05:40:14;;;;;;;33.20;20.92;;;;;;;13.19;100.00;100796.03;1734924;81;26303;-78
2022/10/23 05:42:42;;;;;;;37.65;22.48;;;;;;;13.24;100.00;100802.16;1732568;80;25721;-79
2022/10/23 05:45:10;;;;;;;32.70;21.37;;;;;;;13.25;100.00;100801.12;1739909;80;25754;-79
2022/10/23 05:47:55;;;;;;;35.05;21.82;;;;;;;13.26;100.00;100802.25;1746117;80;25719;-79
2022/10/23 05:50:29;;;;;;;36.70;21.82;;;;;;;13.29;100.00;100801.03;1752058;80;27534;-78
2022/10/23 05:53:15;;;;;;;38.33;23.35;;;;;;;13.29;100.00;100803.72;1735554;81;25494;-78
2022/10/23 05:55:53;;;;;;;45.92;24.67;;;;;;;13.32;100.00;100810.06;1721239;83;25772;-79
2022/10/23 05:58:30;;;;;;;38.88;22.95;;;;;;;13.34;100.00;100805.31;1720548;81;26273;-78
2022/10/23 06:01:10;;;;;;;35.20;20.17;;;;;;;13.34;100.00;100812.87;1737285;80;25762;-79
2022/10/23 06:03:39;;;;;;;34.67;22.85;;;;;;;13.35;100.00;100811.83;1711295;81;27486;-79
2022/10/23 06:06:07;;;;;;;41.80;25.72;;;;;;;13.34;100.00;100816.91;1722986;81;26183;-79
2022/10/23 06:08:38;;;;;;;41.02;24.92;;;;;;;13.36;100.00;100814.85;1752606;80;25844;-78
2022/10/23 06:11:10;;;;;;;41.65;26.30;;;;;;;13.37;100.00;100808.92;1749663;81;26547;-79
2022/10/23 06:13:37;;;;;;;44.93;25.20;;;;;;;13.40;100.00;100813.92;1740615;81;26198;-79
2022/10/23 06:16:11;;;;;;;43.90;25.12;;;;;;;13.39;100.00;100812.25;1751255;81;27460;-79
2022/10/23 06:18:38;;;;;;;48.98;24.32;;;;;;;13.38;100.00;100815.98;1732790;81;25899;-79
2022/10/23 06:21:07;;;;;;;36.83;24.35;;;;;;;13.37;100.00;100819.69;1751742;80;25702;-79
2022/10/23 06:23:36;;;;;;;42.83;24.30;;;;;;;13.36;100.00;100814.85;1748135;80;25592;-79
2022/10/23 06:26:21;;;;;;;38.98;23.65;;;;;;;13.35;100.00;100825.28;1735268;80;26816;-79
2022/10/23 06:28:49;;;;;;;41.70;23.32;;;;;;;13.37;100.00;100826.42;1743333;80;27460;-80
2022/10/23 06:31:18;;;;;;;39.63;24.95;;;;;;;13.37;100.00;100825.08;1718358;81;25734;-79
2022/10/23 06:33:45;;;;;;;42.33;26.68;;;;;;;13.37;100.00;100825.08;1720626;81;26426;-79
2022/10/23 06:36:12;;;;;;;40.45;24.52;;;;;;;13.39;100.00;100821.67;1739753;80;26265;-79
2022/10/23 06:38:40;;;;;;;37.93;22.52;;;;;;;13.39;100.00;100825.70;1737608;80;25793;-79
2022/10/23 06:41:12;;;;;;;35.10;23.85;;;;;;;13.42;100.00;100830.70;1756102;79;27499;-79
2022/10/23 06:43:39;;;;;;;35.60;23.98;;;;;;;13.45;100.00;100831.66;1766681;80;25724;-79
2022/10/23 06:46:22;;;;;;;43.42;23.92;;;;;;;13.48;100.00;100834.77;1796751;78;25822;-77
2022/10/23 06:49:09;;;;;;;41.98;24.30;;;;;;;13.49;100.00;100824.34;1693799;83;25717;-79
2022/10/23 06:51:37;;;;;;;34.55;22.40;;;;;;;13.55;100.00;100826.22;1693368;83;26156;-79
2022/10/23 06:54:04;;;;;;;40.90;25.27;;;;;;;13.58;100.00;100831.19;1729593;77;27411;-78
2022/10/23 06:56:49;;;;;;;35.83;23.35;;;;;;;13.64;100.00;100832.27;1796104;77;25850;-79
2022/10/23 06:59:18;;;;;;;36.60;23.12;;;;;;;13.70;100.00;100830.11;1794347;77;25771;-79
2022/10/23 07:01:45;;;;;;;37.85;22.93;;;;;;;13.71;100.00;100835.28;1788202;78;25811;-79
2022/10/23 07:04:13;;;;;;;37.33;23.35;;;;;;;13.72;100.00;100830.73;1760336;80;25702;-80
2022/10/23 07:06:42;;;;;;;35.40;22.42;;;;;;;13.73;100.00;100837.77;1810559;78;27425;-78
2022/10/23 07:09:08;;;;;;;42.58;23.67;;;;;;;13.71;100.00;100837.97;1800894;78;25789;-78
2022/10/23 07:11:37;;;;;;;39.27;25.10;;;;;;;13.70;100.00;100838.18;1793310;77;25824;-79
2022/10/23 07:14:03;;;;;;;36.55;23.35;;;;;;;13.72;100.00;100828.88;1753552;80;25768;-79
2022/10/23 07:16:30;;;;;;;39.75;25.85;;;;;;;13.79;100.00;100835.64;1787524;77;25803;-79
2022/10/23 07:19:00;;;;;;;38.92;23.98;;;;;;;13.83;100.00;100840.93;1796643;78;27689;-80
2022/10/23 07:21:33;;;;;;;41.55;24.90;;;;;;;13.87;100.00;100828.20;1759210;80;25286;-78
2022/10/23 07:24:10;;;;;;;35.15;23.38;;;;;;;13.90;100.00;100828.30;1732778;81;25775;-79
2022/10/23 07:26:40;;;;;;;35.73;23.50;;;;;;;13.91;100.00;100831.31;1732776;81;25921;-78
2022/10/23 07:29:07;;;;;;;39.20;24.67;;;;;;;13.93;100.00;100826.55;1730201;80;25812;-77
2022/10/23 07:31:35;;;;;;;45.98;26.37;;;;;;;13.96;100.00;100820.78;1796274;78;27593;-78
2022/10/23 07:34:20;;;;;;;45.08;26.05;;;;;;;14.00;100.00;100817.98;1802215;79;25613;-80
2022/10/23 07:36:48;;;;;;;44.40;24.90;;;;;;;14.07;100.00;100812.08;1796207;79;25824;-79
2022/10/23 07:39:15;;;;;;;36.10;25.62;;;;;;;14.13;100.00;100808.59;1754707;80;26624;-78
2022/10/23 07:41:43;;;;;;;44.85;26.33;;;;;;;14.18;100.00;100816.06;1790395;78;25845;-78
2022/10/23 07:44:10;;;;;;;44.05;25.15;;;;;;;14.22;100.00;100815.42;1794219;79;28315;-80
2022/10/23 07:46:36;;;;;;;46.55;27.35;;;;;;;14.25;100.00;100812.84;1793372;78;26306;-79
2022/10/23 07:49:03;;;;;;;50.98;27.80;;;;;;;14.25;100.00;100816.37;1791121;79;25751;-78
2022/10/23 07:51:29;;;;;;;41.42;24.87;;;;;;;14.26;100.00;100819.91;1789625;78;25894;-79
2022/10/23 07:53:57;;;;;;;45.23;26.68;;;;;;;14.26;100.00;100822.09;1789094;78;26536;-78
2022/10/23 07:56:34;;;;;;;42.50;25.88;;;;;;;14.27;100.00;100814.30;1770171;79;27712;-79
2022/10/23 07:59:18;;;;;;;41.92;25.60;;;;;;;14.28;100.00;100818.67;1791515;78;26562;-79
2022/10/23 08:01:47;;;;;;;45.48;26.57;;;;;;;14.30;100.00;100812.59;1759231;80;25718;-79
2022/10/23 08:04:14;;;;;;;40.88;24.82;;;;;;;14.32;100.00;100814.55;1791483;79;25854;-78
2022/10/23 08:06:45;;;;;;;47.40;26.33;;;;;;;14.34;100.00;100815.69;1788426;79;25851;-79
2022/10/23 08:09:11;;;;;;;48.35;25.97;;;;;;;14.36;100.00;100819.00;1802905;78;27432;-79
2022/10/23 08:11:39;;;;;;;40.48;24.77;;;;;;;14.38;100.00;100825.02;1803406;77;26341;-78
2022/10/23 08:14:07;;;;;;;37.10;24.47;;;;;;;14.40;100.00;100825.64;1793948;77;25823;-79
2022/10/23 08:16:37;;;;;;;46.73;25.82;;;;;;;14.44;100.00;100829.58;1797976;78;26238;-79
2022/10/23 08:19:06;;;;;;;44.18;26.85;;;;;;;14.48;100.00;100832.17;1802300;77;25660;-78
2022/10/23 08:21:35;;;;;;;39.50;26.57;;;;;;;14.50;100.00;100826.05;1792880;78;27618;-78
2022/10/23 08:24:03;;;;;;;46.77;26.37;;;;;;;14.54;100.00;100829.48;1760469;79;25801;-79
2022/10/23 08:26:30;;;;;;;48.15;26.62;;;;;;;14.57;100.00;100822.34;1794745;79;25759;-78
2022/10/23 08:29:00;;;;;;;41.18;26.93;;;;;;;14.62;100.00;100825.25;1759278;80;25945;-79
2022/10/23 08:31:28;;;;;;;42.03;27.30;;;;;;;14.67;100.00;100826.79;1801295;78;25899;-78
2022/10/23 08:34:14;;;;;;;45.10;26.45;;;;;;;14.72;100.00;100825.33;1797091;78;27460;-79
2022/10/23 08:36:41;;;;;;;44.73;26.62;;;;;;;14.74;100.00;100824.60;1763551;80;25902;-79
2022/10/23 08:39:08;;;;;;;43.42;26.85;;;;;;;14.76;100.00;100829.27;1763972;80;26426;-79
2022/10/23 08:41:42;;;;;;;38.05;26.52;;;;;;;14.79;100.00;100831.05;1760941;80;25719;-78
2022/10/23 08:44:31;;;;;;;39.95;25.20;;;;;;;14.80;100.00;100828.64;1746823;80;25869;-77
2022/10/23 08:47:05;;;;;;;40.63;25.43;;;;;;;14.84;100.00;100824.48;1760832;80;27468;-78
2022/10/23 08:49:58;;;;;;;39.42;26.35;;;;;;;14.86;100.00;100828.34;1755305;80;25795;-79
2022/10/23 08:52:36;;;;;;;40.00;26.85;;;;;;;14.87;100.00;100826.78;1754480;80;25796;-78
2022/10/23 08:55:32;;;;;;;40.83;27.58;;;;;;;14.91;100.00;100828.02;1757229;80;26258;-78
2022/10/23 08:58:07;;;;;;;42.30;25.62;;;;;;;14.93;100.00;100830.50;1758104;80;25934;-77
2022/10/23 09:00:34;;;;;;;43.85;26.77;;;;;;;14.99;100.00;100831.03;1737059;81;27424;-78
2022/10/23 09:03:03;;;;;;;38.85;24.75;;;;;;;15.02;100.00;100831.44;1733778;81;25844;-78
2022/10/23 09:05:35;;;;;;;42.20;25.20;;;;;;;15.07;100.00;100825.41;1749230;80;25781;-78
2022/10/23 09:08:25;;;;;;;39.85;24.52;;;;;;;15.10;100.00;100839.81;1735082;81;25766;-78
2022/10/23 09:11:02;;;;;;;39.73;25.45;;;;;;;15.13;100.00;100835.36;1747960;80;25719;-78
2022/10/23 09:14:12;;;;;;;39.75;25.10;;;;;;;15.15;100.00;100835.47;1753715;80;27465;-78
2022/10/23 09:17:07;;;;;;;37.40;24.00;;;;;;;15.20;100.00;100837.53;1749679;80;25716;-78
2022/10/23 09:19:34;;;;;;;36.73;22.65;;;;;;;15.25;100.00;100841.76;1760446;80;25781;-78
2022/10/23 09:22:00;;;;;;;39.23;23.67;;;;;;;15.30;100.00;100840.10;1761804;80;25899;-78
2022/10/23 09:24:30;;;;;;;35.90;23.10;;;;;;;15.34;100.00;100847.24;1764121;80;25846;-78
2022/10/23 09:26:56;;;;;;;36.00;22.17;;;;;;;15.34;100.00;100849.95;1763255;79;27466;-78
2022/10/23 09:29:34;;;;;;;32.13;22.42;;;;;;;15.35;100.00;100852.97;1763158;80;26711;-78
2022/10/23 09:32:05;;;;;;;38.95;22.37;;;;;;;15.35;100.00;100847.02;1759934;80;25742;-78
2022/10/23 09:34:34;;;;;;;32.85;21.77;;;;;;;15.37;100.00;100850.88;1758280;80;27024;-78
2022/10/23 09:37:29;;;;;;;40.85;23.87;;;;;;;15.37;100.00;100848.19;1753606;80;25925;-79
2022/10/23 09:40:27;;;;;;;34.98;21.30;;;;;;;15.37;100.00;100858.98;1755050;80;28277;-78
2022/10/23 09:42:59;;;;;;;32.63;20.37;;;;;;;15.34;100.00;100852.12;1753928;80;25949;-78
2022/10/23 09:45:33;;;;;;;34.00;22.05;;;;;;;15.31;100.00;100847.14;1756071;79;25913;-78
2022/10/23 09:48:14;;;;;;;36.68;22.95;;;;;;;15.30;100.00;100852.76;1765796;80;26726;-77
2022/10/23 09:50:55;;;;;;;;;;;;;;;15.31;100.00;100851.19;1753961;81;26001;-78
2022/10/23 09:53:54;;;;;;;32.15;19.60;;;;;;;15.34;100.00;100856.69;1745894;80;27453;-78
2022/10/23 09:56:33;;;;;;;31.70;21.57;;;;;;;15.38;100.00;100860.11;1741352;80;25877;-78
2022/10/23 09:59:13;;;;;;;34.03;21.27;;;;;;;15.39;100.00;100856.90;1746089;80;25731;-79
2022/10/23 10:01:53;;;;;;;30.85;20.17;;;;;;;15.42;100.00;100851.06;1746080;80;26644;-78
2022/10/23 10:04:34;;;;;;;31.60;18.27;;;;;;;15.44;100.00;100852.54;1749432;80;26330;-77
2022/10/23 10:07:05;;;;;;;27.70;19.25;;;;;;;15.45;100.00;100849.33;1746497;80;27696;-78
2022/10/23 10:09:32;;;;;;;27.00;17.42;;;;;;;15.46;100.00;100854.22;1752213;80;34492;-78
2022/10/23 10:12:25;;;;;;;346.07;177.30;;;;;;;15.44;100.00;100849.84;1748293;80;25770;-78
2022/10/23 10:15:16;;;;;;;61.40;35.68;;;;;;;15.47;100.00;100847.24;1738664;80;26356;-78
2022/10/23 10:18:06;;;;;;;30.07;22.13;;;;;;;15.51;100.00;100851.17;1757018;80;25813;-78
2022/10/23 10:20:50;;;;;;;25.53;17.23;;;;;;;15.55;100.00;100843.47;1711122;80;27543;-79
2022/10/23 10:23:45;;;;;;;23.40;18.12;;;;;;;15.60;100.00;100843.16;1745226;80;26504;-78
2022/10/23 10:26:43;;;;;;;25.08;17.42;;;;;;;15.64;100.00;100844.38;1749198;80;26228;-78
2022/10/23 10:29:42;;;;;;;24.60;16.70;;;;;;;15.68;100.00;100853.71;1739611;80;25786;-78
2022/10/23 10:32:30;;;;;;;26.30;17.55;;;;;;;15.67;100.00;100846.67;1726526;80;44465;-78
2022/10/23 10:35:06;;;;;;;26.23;17.60;;;;;;;15.70;100.00;100844.87;1739402;80;27805;-78
2022/10/23 10:37:57;;;;;;;24.55;17.45;;;;;;;15.72;100.00;100848.19;1739079;81;25830;-77
2022/10/23 10:40:38;;;;;;;;;;;;;;;15.69;100.00;100837.83;1739795;81;25920;-77
2022/10/23 10:43:39;;;;;;;25.80;17.30;;;;;;;15.67;100.00;100840.43;1741307;81;25852;-78
2022/10/23 10:46:32;;;;;;;25.40;17.73;;;;;;;15.65;100.00;100844.70;1738568;80;25254;-77
2022/10/23 10:49:19;;;;;;;23.67;18.12;;;;;;;15.66;100.00;100834.70;1738122;80;28260;-79
2022/10/23 10:52:00;;;;;;;23.67;18.50;;;;;;;15.63;100.00;100826.50;1710389;81;26182;-77
2022/10/23 10:54:50;;;;;;;25.12;18.45;;;;;;;15.63;100.00;100834.61;1719674;83;25887;-77
2022/10/23 10:57:42;;;;;;;25.80;17.75;;;;;;;15.61;100.00;100836.69;1703901;83;26389;-77
2022/10/23 11:00:19;;;;;;;25.77;18.48;;;;;;;15.62;100.00;100837.53;1714800;81;25718;-78
2022/10/23 11:03:02;;;;;;;25.62;18.90;;;;;;;15.63;100.00;100835.16;1720365;83;27647;-77
2022/10/23 11:05:42;;;;;;;28.00;19.00;;;;;;;15.61;100.00;100831.84;1707325;81;26354;-77
2022/10/23 11:08:29;;;;;;;27.62;19.32;;;;;;;15.61;100.00;100833.99;1738178;80;26485;-78
2022/10/23 11:11:12;;;;;;;26.37;18.80;;;;;;;15.57;100.00;100829.27;1742307;80;25929;-78
2022/10/23 11:13:43;;;;;;;31.75;20.32;;;;;;;15.57;100.00;100829.27;1738972;80;25875;-78
2022/10/23 11:16:34;;;;;;;27.52;19.92;;;;;;;15.57;100.00;100829.27;1737489;80;28269;-79
2022/10/23 11:19:21;;;;;;;30.35;19.75;;;;;;;15.58;100.00;100833.60;1743741;80;25830;-77
2022/10/23 11:22:11;;;;;;;31.90;19.87;;;;;;;15.59;100.00;100827.17;1735242;80;26046;-78
2022/10/23 11:25:35;;;;;;;24.10;19.95;;;;;;;15.60;100.00;100826.95;1742607;81;26328;-78
2022/10/23 11:28:36;;;;;;;29.95;22.17;;;;;;;15.60;100.00;100830.16;1745103;80;25820;-77
2022/10/23 11:31:40;;;;;;;32.65;23.15;;;;;;;15.62;100.00;100817.28;1745119;81;27485;-77
2022/10/23 11:34:24;;;;;;;31.10;22.30;;;;;;;15.62;100.00;100832.97;1738449;80;25514;-77